Time;durP1;ratioP1;P1;durP2;ratioP2;P2;SDS_P1;SDS_P2;PMS_P1;PMS_P2;Temp;Humidity;BMP_temperature;BMP_pressure;BME280_temperature;BME280_humidity;BME280_pressure;Samples;Min_cycle;Max_cycle;Signal;HPM_P1;HPM_P2
2022/06/26 00:00:36;;;;;;;26.92;15.65;;;;;;;18.08;97.88;101141.53;5085269;28;20119;-70
2022/06/26 00:03:01;;;;;;;24.25;14.93;;;;;;;18.09;98.97;101137.84;5092058;28;20032;-69
2022/06/26 00:05:27;;;;;;;19.85;15.35;;;;;;;18.14;99.62;101145.50;5092291;28;20769;-70
2022/06/26 00:07:53;;;;;;;23.80;15.88;;;;;;;18.23;99.07;101146.53;5092954;28;20035;-70
2022/06/26 00:10:18;;;;;;;25.92;16.38;;;;;;;18.09;100.00;101147.78;5092068;28;20051;-70
2022/06/26 00:12:44;;;;;;;26.17;16.33;;;;;;;18.17;100.00;101147.06;5072762;28;20088;-70
2022/06/26 00:15:10;;;;;;;28.75;15.65;;;;;;;18.02;100.00;101139.38;5089670;28;20150;-70
2022/06/26 00:17:36;;;;;;;23.15;16.15;;;;;;;18.05;100.00;101144.50;5079367;28;20039;-70
2022/06/26 00:20:02;;;;;;;24.40;16.23;;;;;;;18.08;100.00;101149.63;5093197;28;20035;-70
2022/06/26 00:22:28;;;;;;;25.38;16.40;;;;;;;18.07;100.00;101142.53;5087269;28;20854;-69
2022/06/26 00:24:54;;;;;;;22.55;15.45;;;;;;;18.11;100.00;101145.78;5075598;28;20068;-69
2022/06/26 00:27:19;;;;;;;33.92;17.50;;;;;;;18.19;100.00;101145.09;5083838;28;20136;-72
2022/06/26 00:29:45;;;;;;;27.27;16.38;;;;;;;18.23;100.00;101162.72;5072630;28;20035;-71
2022/06/26 00:32:10;;;;;;;19.92;15.52;;;;;;;18.19;100.00;101148.66;5077660;28;20718;-71
2022/06/26 00:34:36;;;;;;;25.00;15.32;;;;;;;18.33;99.53;101156.34;5072941;28;20744;-71
2022/06/26 00:37:02;;;;;;;27.13;16.15;;;;;;;18.23;99.74;101160.03;5087180;28;20138;-71
2022/06/26 00:39:28;;;;;;;22.92;16.48;;;;;;;18.15;99.90;101155.31;5066571;28;20055;-71
2022/06/26 00:41:53;;;;;;;24.00;16.70;;;;;;;18.12;100.00;101158.28;5088074;28;20048;-71
2022/06/26 00:44:22;;;;;;;24.88;17.60;;;;;;;18.03;100.00;101159.13;5089649;28;20947;-71
2022/06/26 00:46:47;;;;;;;24.00;15.88;;;;;;;18.23;100.00;101168.97;5056606;28;20036;-71
2022/06/26 00:49:14;;;;;;;25.30;17.45;;;;;;;18.17;100.00;101168.66;5063545;28;20047;-71
2022/06/26 00:51:44;;;;;;;25.98;16.42;;;;;;;18.20;100.00;101163.84;5075439;28;20043;-71
2022/06/26 00:54:10;;;;;;;26.23;16.90;;;;;;;18.28;100.00;101161.31;5085826;28;20040;-71
2022/06/26 00:56:37;;;;;;;23.30;17.13;;;;;;;18.05;100.00;101155.28;5084997;28;20350;-71
2022/06/26 00:59:03;;;;;;;24.77;15.80;;;;;;;18.05;100.00;101149.03;5064098;28;20039;-71
2022/06/26 01:01:30;;;;;;;28.20;16.83;;;;;;;18.01;100.00;101155.69;5086098;28;20118;-71
2022/06/26 01:03:56;;;;;;;24.52;15.75;;;;;;;18.16;100.00;101162.41;5080155;28;20040;-71
2022/06/26 01:06:21;;;;;;;21.73;16.10;;;;;;;18.11;100.00;101164.66;5089695;28;20258;-70
2022/06/26 01:08:47;;;;;;;24.45;15.93;;;;;;;18.11;100.00;101168.22;5073392;28;21072;-71
2022/06/26 01:11:20;;;;;;;27.65;17.63;;;;;;;18.03;100.00;101167.22;5072843;28;20039;-70
2022/06/26 01:13:48;;;;;;;23.70;16.13;;;;;;;18.14;100.00;101163.56;5073389;28;20038;-71
2022/06/26 01:16:16;;;;;;;27.02;16.67;;;;;;;17.97;100.00;101165.94;5091070;28;20039;-71
2022/06/26 01:18:44;;;;;;;21.30;15.95;;;;;;;18.12;100.00;101166.38;5073225;28;20019;-70
2022/06/26 01:21:10;;;;;;;25.50;18.27;;;;;;;18.07;100.00;101171.34;5071835;28;20042;-71
2022/06/26 01:23:35;;;;;;;28.52;16.85;;;;;;;18.06;100.00;101175.88;5072746;28;20438;-71
2022/06/26 01:26:01;;;;;;;26.38;16.92;;;;;;;18.04;100.00;101171.63;5072653;28;20046;-71
2022/06/26 01:28:27;;;;;;;22.65;16.23;;;;;;;18.07;100.00;101164.13;5072925;28;20206;-71
2022/06/26 01:30:54;;;;;;;26.23;17.15;;;;;;;18.07;100.00;101164.13;5078802;28;20761;-70
2022/06/26 01:33:20;;;;;;;20.60;15.85;;;;;;;18.13;100.00;101161.84;5056685;28;20036;-70
2022/06/26 01:35:45;;;;;;;25.40;17.52;;;;;;;18.06;100.00;101170.47;5090880;28;20063;-70
2022/06/26 01:38:15;;;;;;;23.05;15.35;;;;;;;18.12;100.00;101163.69;5079125;28;20035;-70
2022/06/26 01:40:42;;;;;;;24.33;16.08;;;;;;;18.04;100.00;101158.13;5073038;28;20776;-70
2022/06/26 01:43:12;;;;;;;26.33;17.38;;;;;;;18.08;100.00;101162.28;5074488;28;20027;-70
2022/06/26 01:45:46;;;;;;;29.88;18.15;;;;;;;18.00;100.00;101165.63;5068907;28;20780;-70
2022/06/26 01:48:13;;;;;;;23.60;16.33;;;;;;;17.96;100.00;101174.16;5066601;28;20074;-70
2022/06/26 01:50:39;;;;;;;24.40;16.58;;;;;;;18.04;100.00;101174.31;5067933;28;20035;-70
2022/06/26 01:53:06;;;;;;;25.35;16.30;;;;;;;18.01;100.00;101175.44;5068848;28;20050;-70
2022/06/26 01:55:32;;;;;;;24.55;16.80;;;;;;;18.16;100.00;101175.06;5069179;28;20032;-70
2022/06/26 01:58:01;;;;;;;24.85;15.65;;;;;;;18.05;100.00;101179.56;5066242;28;20056;-70
2022/06/26 02:00:28;;;;;;;25.58;15.38;;;;;;;18.09;100.00;101180.16;5070571;28;20036;-70
2022/06/26 02:02:55;;;;;;;26.50;16.95;;;;;;;18.07;100.00;101187.53;5065622;28;20861;-70
2022/06/26 02:05:20;;;;;;;23.88;16.77;;;;;;;18.03;100.00;101184.28;5060997;28;20479;-70
2022/06/26 02:07:45;;;;;;;28.05;17.33;;;;;;;18.08;100.00;101183.88;5058735;28;20816;-69
2022/06/26 02:15:41;;;;;;;29.00;17.02;;;;;;;17.84;100.00;101186.91;5070962;28;20028;-70
2022/06/26 02:18:06;;;;;;;25.45;17.90;;;;;;;17.76;100.00;101182.16;5068861;28;20040;-70
2022/06/26 02:20:32;;;;;;;27.60;17.77;;;;;;;17.65;100.00;101173.28;5068543;28;20093;-70
2022/06/26 02:22:57;;;;;;;26.95;18.20;;;;;;;17.61;100.00;101180.78;5073995;28;20490;-70
2022/06/26 02:25:22;;;;;;;28.08;18.77;;;;;;;17.59;100.00;101189.00;5055249;28;20040;-70
2022/06/26 02:27:53;;;;;;;29.88;17.50;;;;;;;17.60;100.00;101182.63;5082014;28;20926;-70
2022/06/26 02:30:18;;;;;;;25.42;17.52;;;;;;;17.62;100.00;101185.22;5062886;28;20044;-70
2022/06/26 02:32:44;;;;;;;29.30;18.02;;;;;;;17.56;100.00;101175.78;5076429;28;20371;-70
2022/06/26 02:35:10;;;;;;;26.75;17.83;;;;;;;17.55;100.00;101179.47;5075263;28;22798;-70
2022/06/26 02:37:37;;;;;;;29.70;19.13;;;;;;;17.56;100.00;101174.94;5075468;28;20565;-70
2022/06/26 02:40:03;;;;;;;28.80;17.98;;;;;;;17.42;100.00;101178.84;5076385;28;20036;-70
2022/06/26 02:42:29;;;;;;;31.98;18.27;;;;;;;17.43;100.00;101177.88;5076111;28;20039;-70
2022/06/26 02:44:55;;;;;;;29.13;18.38;;;;;;;17.40;100.00;101166.47;5075855;28;20242;-70
2022/06/26 02:47:21;;;;;;;30.23;17.75;;;;;;;17.29;100.00;101148.56;5093857;28;20035;-70
2022/06/26 02:49:46;;;;;;;31.17;18.60;;;;;;;17.25;100.00;101147.94;5059785;28;20032;-70
2022/06/26 02:52:12;;;;;;;27.48;18.58;;;;;;;17.27;100.00;101148.69;5092782;28;20044;-70
2022/06/26 02:54:37;;;;;;;36.92;18.45;;;;;;;17.21;100.00;101159.97;5059714;28;20658;-70
2022/06/26 02:57:03;;;;;;;27.60;17.30;;;;;;;17.19;100.00;101161.13;5094525;28;20782;-70
2022/06/26 02:59:28;;;;;;;24.00;17.25;;;;;;;17.18;100.00;101162.09;5076299;28;20027;-70
2022/06/26 03:01:54;;;;;;;29.08;18.98;;;;;;;17.09;100.00;101167.28;5094103;28;20088;-70
2022/06/26 03:04:38;;;;;;;27.63;18.45;;;;;;;16.99;100.00;101171.75;5075943;28;20031;-70
2022/06/26 03:07:04;;;;;;;26.80;17.65;;;;;;;17.02;100.00;101167.97;5080844;28;20063;-70
2022/06/26 03:09:30;;;;;;;23.35;17.15;;;;;;;17.17;100.00;101171.16;5089801;28;20048;-70
2022/06/26 03:11:55;;;;;;;24.88;15.73;;;;;;;17.09;100.00;101175.38;5094367;28;20044;-70
2022/06/26 03:14:22;;;;;;;23.90;16.83;;;;;;;17.05;100.00;101173.06;5074664;28;20035;-70
2022/06/26 03:16:50;;;;;;;26.67;16.02;;;;;;;17.20;100.00;101185.22;5093530;28;20155;-70
2022/06/26 03:19:16;;;;;;;21.55;15.45;;;;;;;17.23;100.00;101203.84;5074411;28;20070;-70
2022/06/26 03:21:41;;;;;;;19.73;13.68;;;;;;;17.31;100.00;101205.88;5093973;28;20614;-70
2022/06/26 03:24:12;;;;;;;20.98;13.98;;;;;;;17.41;100.00;101204.09;5074639;28;20042;-70
2022/06/26 03:26:38;;;;;;;19.70;13.90;;;;;;;17.40;100.00;101210.47;5093876;28;20044;-70
2022/06/26 03:29:07;;;;;;;19.98;13.68;;;;;;;17.49;100.00;101214.22;5091535;28;20128;-70
2022/06/26 03:31:35;;;;;;;19.50;12.38;;;;;;;17.46;100.00;101217.16;5062334;28;20040;-70
2022/06/26 03:34:01;;;;;;;19.13;12.43;;;;;;;17.49;100.00;101219.63;5072694;28;20035;-70
2022/06/26 03:36:28;;;;;;;20.40;13.98;;;;;;;17.52;100.00;101220.22;5074929;28;20059;-69
2022/06/26 03:38:55;;;;;;;21.77;14.23;;;;;;;17.45;100.00;101232.50;5074687;28;20036;-70
2022/06/26 03:41:23;;;;;;;21.00;15.00;;;;;;;17.41;100.00;101232.88;5074709;28;20039;-69
2022/06/26 03:43:49;;;;;;;24.58;14.90;;;;;;;17.50;100.00;101227.56;5075420;28;20067;-70
2022/06/26 03:46:15;;;;;;;22.67;14.50;;;;;;;17.51;100.00;101231.97;5073796;28;20055;-70
2022/06/26 03:48:43;;;;;;;21.00;14.57;;;;;;;17.57;100.00;101233.28;5075053;28;20043;-70
2022/06/26 03:51:09;;;;;;;22.10;15.23;;;;;;;17.60;100.00;101244.66;5090912;28;20116;-70
2022/06/26 03:53:35;;;;;;;25.60;16.88;;;;;;;17.48;100.00;101252.97;5074950;28;20042;-70
2022/06/26 03:56:02;;;;;;;23.63;16.10;;;;;;;17.55;100.00;101260.38;5091644;28;20747;-70
2022/06/26 03:58:28;;;;;;;23.00;16.85;;;;;;;17.52;100.00;101259.78;5075675;28;20069;-69
2022/06/26 04:00:54;;;;;;;23.35;16.63;;;;;;;17.61;100.00;101257.16;5074081;28;21002;-69
2022/06/26 04:03:20;;;;;;;24.42;16.23;;;;;;;17.51;100.00;101247.28;5093366;28;20069;-69
2022/06/26 04:05:46;;;;;;;23.88;17.15;;;;;;;17.59;100.00;101269.06;5075267;28;20043;-70
2022/06/26 04:08:12;;;;;;;25.60;17.20;;;;;;;17.65;100.00;101273.94;5074064;28;20039;-69
2022/06/26 04:10:43;;;;;;;23.15;14.52;;;;;;;17.77;100.00;101267.53;5074647;28;20036;-69
2022/06/26 04:13:28;;;;;;;21.65;14.30;;;;;;;17.71;98.94;101284.19;5092229;28;20084;-69
2022/06/26 04:15:54;;;;;;;19.60;14.13;;;;;;;17.70;97.60;101287.88;5055475;28;20142;-69
2022/06/26 04:18:20;;;;;;;19.25;12.63;;;;;;;17.69;98.17;101286.16;5072960;28;20954;-69
2022/06/26 04:20:45;;;;;;;18.77;11.30;;;;;;;17.64;96.59;101291.09;5091830;28;20043;-69
2022/06/26 04:23:11;;;;;;;15.85;10.65;;;;;;;17.63;94.19;101292.09;5090809;28;20474;-69
2022/06/26 04:25:39;;;;;;;19.98;11.05;;;;;;;17.72;93.58;101290.44;5072320;28;20082;-70
2022/06/26 04:28:05;;;;;;;18.20;10.18;;;;;;;17.67;92.93;101298.06;5076370;28;20043;-70
2022/06/26 04:30:40;;;;;;;17.13;9.88;;;;;;;17.66;93.11;101296.34;5068650;28;20042;-70
2022/06/26 04:33:06;;;;;;;16.15;9.77;;;;;;;17.60;93.50;101300.44;5096119;27;20035;-68
2022/06/26 04:35:33;;;;;;;17.13;10.30;;;;;;;17.70;92.47;101295.13;5071629;28;20163;-68
2022/06/26 04:37:58;;;;;;;17.25;10.02;;;;;;;17.58;93.44;101289.78;5090744;28;20047;-70
2022/06/26 04:40:25;;;;;;;15.02;9.52;;;;;;;17.60;92.45;101295.91;5071636;28;20517;-70
2022/06/26 04:42:52;;;;;;;16.15;10.07;;;;;;;17.54;92.35;101295.59;5073228;28;20027;-70
2022/06/26 04:45:17;;;;;;;20.25;10.38;;;;;;;17.40;92.82;101296.75;5072172;28;20131;-70
2022/06/26 04:47:44;;;;;;;16.20;10.65;;;;;;;17.58;93.06;101300.59;5072564;28;20876;-70
2022/06/26 04:50:15;;;;;;;15.93;9.75;;;;;;;17.65;92.86;101300.91;5090120;28;20109;-70
2022/06/26 04:52:49;;;;;;;14.57;10.27;;;;;;;17.81;92.24;101298.63;5105552;27;20067;-70
2022/06/26 04:55:16;;;;;;;15.55;9.63;;;;;;;17.85;93.22;101296.50;5079487;28;20044;-70
2022/06/26 04:57:44;;;;;;;19.85;12.63;;;;;;;17.74;93.90;101300.16;5056017;28;20772;-70
2022/06/26 05:00:13;;;;;;;25.10;13.95;;;;;;;17.81;94.25;101297.75;5071115;28;20086;-70
2022/06/26 05:03:14;;;;;;;24.00;14.05;;;;;;;17.95;93.75;101305.53;5081653;28;20099;-70
2022/06/26 05:05:56;;;;;;;;;;;;;;;17.95;93.71;101315.47;5073248;28;20041;-70
2022/06/26 05:08:41;;;;;;;28.27;15.05;;;;;;;17.91;93.20;101319.41;5091144;28;20807;-70
2022/06/26 05:11:06;;;;;;;24.55;14.85;;;;;;;18.00;93.31;101324.00;5089102;28;20035;-70
2022/06/26 05:13:35;;;;;;;26.50;15.60;;;;;;;17.64;94.08;101330.72;5056178;28;20390;-70
2022/06/26 05:16:19;;;;;;;22.98;15.35;;;;;;;17.73;94.56;101343.44;5090486;28;20054;-70
2022/06/26 05:18:44;;;;;;;25.08;16.50;;;;;;;17.85;93.94;101345.09;5090884;28;20080;-70
2022/06/26 05:21:10;;;;;;;28.33;16.50;;;;;;;17.90;94.10;101347.38;5072973;28;20032;-71
2022/06/26 05:23:39;;;;;;;27.33;17.25;;;;;;;17.94;93.50;101346.13;5076313;28;20121;-71
2022/06/26 05:26:08;;;;;;;27.75;16.20;;;;;;;18.06;93.41;101343.22;5072065;28;20831;-70
2022/06/26 05:28:34;;;;;;;28.92;17.40;;;;;;;17.85;92.69;101354.03;5072686;28;20050;-70
2022/06/26 05:31:00;;;;;;;27.33;16.35;;;;;;;17.64;92.82;101341.50;5082135;28;20032;-70
2022/06/26 05:33:30;;;;;;;34.08;15.80;;;;;;;17.68;92.79;101348.34;5055525;28;20811;-70
2022/06/26 05:35:56;;;;;;;25.27;14.95;;;;;;;17.72;92.36;101347.97;5071647;28;20039;-70
2022/06/26 05:38:21;;;;;;;30.52;16.65;;;;;;;17.73;92.03;101362.34;5090097;28;20143;-70
2022/06/26 05:40:49;;;;;;;26.45;15.05;;;;;;;17.88;92.04;101366.41;5090090;28;20028;-71
2022/06/26 05:43:15;;;;;;;25.52;14.90;;;;;;;17.72;91.89;101364.16;5070871;28;20059;-69
2022/06/26 05:45:42;;;;;;;26.50;14.80;;;;;;;17.76;91.65;101371.00;5088843;28;20427;-70
2022/06/26 05:48:20;;;;;;;24.35;15.38;;;;;;;17.72;92.43;101371.34;5088997;28;20050;-70
2022/06/26 05:51:04;;;;;;;27.40;15.88;;;;;;;17.65;92.50;101362.09;5089756;28;20107;-70
2022/06/26 05:53:33;;;;;;;24.67;15.00;;;;;;;17.92;91.90;101364.28;5090469;28;20077;-70
2022/06/26 05:56:05;;;;;;;27.70;16.13;;;;;;;17.84;92.24;101373.91;5071807;28;20146;-70
2022/06/26 05:58:49;;;;;;;27.38;16.50;;;;;;;17.91;91.71;101378.78;5075972;28;20044;-70
2022/06/26 06:01:33;;;;;;;28.58;16.25;;;;;;;18.14;91.27;101380.34;5095494;28;20042;-70
2022/06/26 06:04:06;;;;;;;26.85;16.42;;;;;;;18.31;91.05;101379.72;5075822;28;20043;-70
2022/06/26 06:06:32;;;;;;;28.05;15.45;;;;;;;17.98;91.43;101377.28;5076431;28;20035;-70
2022/06/26 06:08:58;;;;;;;26.10;14.88;;;;;;;17.82;91.49;101392.09;5076144;28;20047;-69
2022/06/26 06:11:24;;;;;;;25.52;15.23;;;;;;;17.92;91.36;101388.56;5092205;28;20084;-69
2022/06/26 06:13:49;;;;;;;24.55;14.32;;;;;;;18.17;90.52;101387.31;5094713;28;20043;-70
2022/06/26 06:16:16;;;;;;;26.50;13.77;;;;;;;18.82;86.68;101399.59;5076241;28;20040;-69
2022/06/26 06:18:41;;;;;;;23.35;13.30;;;;;;;19.10;85.46;101403.38;5095817;28;20042;-70
2022/06/26 06:21:07;;;;;;;22.23;13.02;;;;;;;19.44;83.36;101409.28;5092201;28;20032;-69
2022/06/26 06:23:33;;;;;;;24.75;13.82;;;;;;;20.40;80.93;101415.66;5092350;28;20038;-70
2022/06/26 06:25:59;;;;;;;21.10;12.55;;;;;;;20.80;77.57;101415.38;5094413;28;20043;-69
2022/06/26 06:28:26;;;;;;;25.30;12.55;;;;;;;20.59;77.17;101415.63;5091462;28;20790;-69
2022/06/26 06:30:51;;;;;;;18.85;11.95;;;;;;;20.87;76.89;101418.34;5070151;28;20040;-70
2022/06/26 06:33:21;;;;;;;19.02;11.55;;;;;;;20.94;74.23;101419.47;5075258;28;20046;-70
2022/06/26 06:35:48;;;;;;;17.65;10.98;;;;;;;21.98;74.31;101420.72;5072796;28;20040;-70
2022/06/26 06:38:14;;;;;;;17.33;10.75;;;;;;;22.69;70.72;101417.00;5074328;28;20165;-65
2022/06/26 06:40:47;;;;;;;;;;;;;;;22.32;69.27;101425.41;5093169;28;20126;-68
2022/06/26 06:43:14;;;;;;;17.73;9.98;;;;;;;22.24;69.23;101430.81;5075174;28;20090;-68
2022/06/26 06:45:58;;;;;;;16.73;9.25;;;;;;;23.19;65.82;101428.94;5094396;28;20058;-69
2022/06/26 06:48:24;;;;;;;13.48;8.65;;;;;;;23.21;66.45;101440.53;5094780;28;20067;-68
2022/06/26 06:51:08;;;;;;;11.70;8.15;;;;;;;24.19;63.73;101440.66;5078248;28;20054;-69
2022/06/26 06:53:34;;;;;;;13.23;8.40;;;;;;;23.71;64.04;101445.09;5098030;27;20028;-69
2022/06/26 06:56:00;;;;;;;14.07;8.48;;;;;;;23.64;63.59;101446.78;5102196;27;20114;-68
2022/06/26 06:58:25;;;;;;;12.88;7.97;;;;;;;23.00;66.63;101441.81;5057253;28;20362;-69
2022/06/26 07:00:52;;;;;;;13.38;7.47;;;;;;;22.25;66.57;101435.22;5107505;27;20028;-68
2022/06/26 07:03:18;;;;;;;10.73;6.57;;;;;;;23.23;64.63;101436.59;5076898;27;20043;-69
2022/06/26 07:05:43;;;;;;;12.48;7.05;;;;;;;22.17;67.93;101451.47;5095013;28;20136;-68
2022/06/26 07:08:09;;;;;;;12.35;7.20;;;;;;;22.62;67.89;101445.81;5105525;27;20057;-68
2022/06/26 07:10:34;;;;;;;10.88;6.97;;;;;;;22.60;65.23;101445.16;5060392;27;20027;-69
2022/06/26 07:13:00;;;;;;;9.18;6.43;;;;;;;22.86;67.16;101438.81;5074688;28;20036;-68
2022/06/26 07:15:27;;;;;;;12.50;7.25;;;;;;;23.56;64.23;101436.69;5072555;28;20035;-69
2022/06/26 07:17:53;;;;;;;10.77;6.30;;;;;;;23.99;61.44;101434.72;5074365;28;20080;-69
2022/06/26 07:20:18;;;;;;;8.40;6.22;;;;;;;24.17;63.34;101432.66;5089239;28;20048;-69
2022/06/26 07:22:44;;;;;;;12.50;6.53;;;;;;;24.86;59.68;101433.06;5107108;27;20785;-69
2022/06/26 07:25:33;;;;;;;8.32;5.80;;;;;;;25.20;59.74;101435.50;5093725;27;20050;-70
2022/06/26 07:28:04;;;;;;;10.27;6.88;;;;;;;24.24;61.22;101441.00;5105402;27;20040;-67
2022/06/26 07:30:35;;;;;;;10.30;6.35;;;;;;;25.15;61.12;101435.19;5088279;28;20031;-69
2022/06/26 07:34:12;;;;;;;10.23;6.32;;;;;;;25.26;60.97;101445.72;5078065;28;20032;-69
2022/06/26 07:35:54;;;;;;;10.20;6.63;;;;;;;24.65;61.57;101463.66;5073136;28;20044;-68
2022/06/26 07:38:20;;;;;;;9.23;6.38;;;;;;;26.15;58.67;101453.47;5072629;28;20555;-69
2022/06/26 07:40:46;;;;;;;13.35;6.15;;;;;;;25.35;58.28;101465.59;5090487;27;20040;-69
2022/06/26 07:43:11;;;;;;;13.88;5.70;;;;;;;26.11;54.90;101458.47;5070756;28;20036;-69
2022/06/26 07:45:37;;;;;;;5.75;4.60;;;;;;;25.70;57.25;101466.06;5089455;28;20043;-69
2022/06/26 07:48:06;;;;;;;8.02;4.47;;;;;;;25.50;57.95;101463.84;5066312;28;20072;-69
2022/06/26 07:50:34;;;;;;;8.93;4.40;;;;;;;25.27;55.91;101477.44;5081694;28;20036;-69
2022/06/26 07:52:59;;;;;;;6.30;3.30;;;;;;;24.40;56.39;101491.97;5077615;28;20043;-69
2022/06/26 07:55:25;;;;;;;6.47;4.10;;;;;;;25.03;58.72;101491.16;5070462;28;20036;-69
2022/06/26 07:57:50;;;;;;;7.93;4.13;;;;;;;25.23;56.17;101487.00;5078799;28;20110;-69
2022/06/26 08:00:16;;;;;;;5.75;3.13;;;;;;;25.80;57.16;101480.38;5076449;28;20086;-69
2022/06/26 08:02:41;;;;;;;3.67;3.20;;;;;;;25.16;53.72;101487.91;5080777;28;20054;-69
2022/06/26 08:05:07;;;;;;;5.18;2.80;;;;;;;25.15;55.73;101487.06;5072367;28;20035;-69
2022/06/26 08:07:33;;;;;;;6.95;3.10;;;;;;;25.63;56.17;101487.81;5070766;28;20106;-69
2022/06/26 08:09:59;;;;;;;5.93;2.90;;;;;;;25.76;54.59;101476.34;5076043;28;20044;-68
2022/06/26 08:12:24;;;;;;;4.60;3.22;;;;;;;26.11;52.89;101477.63;5075187;28;20843;-70
2022/06/26 08:14:50;;;;;;;5.32;2.50;;;;;;;25.87;53.28;101483.25;5053773;28;20042;-70
2022/06/26 08:17:16;;;;;;;5.72;2.40;;;;;;;25.50;53.51;101482.06;5075569;28;20035;-69
2022/06/26 08:19:42;;;;;;;6.28;2.55;;;;;;;25.86;51.71;101489.78;5069219;28;20861;-69
2022/06/26 08:22:07;;;;;;;5.30;2.42;;;;;;;25.90;50.89;101481.00;5077741;28;20868;-70
2022/06/26 08:24:33;;;;;;;4.47;2.70;;;;;;;24.98;54.62;101499.00;5072503;28;20911;-69
2022/06/26 08:27:00;;;;;;;5.28;2.55;;;;;;;25.86;53.10;101490.63;5067832;28;20043;-69
2022/06/26 08:29:26;;;;;;;4.82;2.30;;;;;;;24.50;52.57;101498.97;5052359;28;20040;-68
2022/06/26 08:31:52;;;;;;;4.57;2.25;;;;;;;25.40;52.23;101486.91;5085310;28;20848;-69
2022/06/26 08:34:18;;;;;;;6.13;2.38;;;;;;;25.61;52.80;101494.50;5089647;28;20039;-68
2022/06/26 08:36:43;;;;;;;3.67;2.58;;;;;;;25.39;53.52;101494.25;5078475;28;20054;-69
2022/06/26 08:39:09;;;;;;;4.75;2.47;;;;;;;25.08;53.58;101488.78;5088907;28;20035;-70
2022/06/26 08:41:40;;;;;;;3.75;2.30;;;;;;;25.52;51.26;101488.22;5083543;28;20789;-70
2022/06/26 08:44:06;;;;;;;4.05;1.70;;;;;;;25.87;55.12;101500.50;5089348;28;20028;-70
2022/06/26 08:46:36;;;;;;;2.85;2.35;;;;;;;25.89;51.93;101503.91;5088185;28;20019;-69
2022/06/26 08:49:07;;;;;;;3.47;1.73;;;;;;;25.74;53.75;101508.41;5087750;28;20041;-68
2022/06/26 08:51:35;;;;;;;3.72;2.03;;;;;;;25.78;52.03;101507.06;5090094;27;20115;-68
2022/06/26 08:54:02;;;;;;;3.80;2.20;;;;;;;24.88;53.21;101514.72;5079761;27;20036;-68
2022/06/26 08:56:27;;;;;;;5.50;2.58;;;;;;;25.16;53.01;101517.94;5071639;28;20098;-68
2022/06/26 08:58:54;;;;;;;4.15;2.40;;;;;;;25.37;54.66;101511.88;5082772;28;20042;-69
2022/06/26 09:01:20;;;;;;;5.20;2.20;;;;;;;25.00;53.43;101521.50;5079463;28;20043;-72
2022/06/26 09:03:45;;;;;;;3.40;2.33;;;;;;;24.71;54.49;101524.84;5069639;28;20032;-70
2022/06/26 09:06:11;;;;;;;5.00;2.85;;;;;;;24.84;56.01;101535.19;5066759;28;20068;-69
2022/06/26 09:08:44;;;;;;;7.25;2.55;;;;;;;24.83;54.65;101528.88;5080433;28;20655;-68
2022/06/26 09:11:11;;;;;;;7.10;2.50;;;;;;;24.46;55.23;101530.31;5073234;28;20039;-69
2022/06/26 09:13:41;;;;;;;5.18;2.97;;;;;;;24.45;55.17;101533.19;5071284;28;20984;-69
2022/06/26 09:16:07;;;;;;;3.33;2.17;;;;;;;25.52;53.31;101529.19;5087548;27;20025;-70
2022/06/26 09:18:36;;;;;;;8.82;2.50;;;;;;;24.99;53.30;101531.56;5087549;28;20841;-71
2022/06/26 09:21:04;;;;;;;6.97;2.80;;;;;;;25.02;54.87;101525.78;5067212;28;20146;-69
2022/06/26 09:23:32;;;;;;;4.30;2.78;;;;;;;24.85;53.54;101528.72;5056179;28;20149;-69
2022/06/26 09:25:58;;;;;;;3.20;2.38;;;;;;;24.71;53.76;101528.41;5089271;28;20771;-69
2022/06/26 09:28:24;;;;;;;4.45;2.30;;;;;;;24.40;55.35;101532.84;5087706;28;20035;-69
2022/06/26 09:30:55;;;;;;;5.03;2.58;;;;;;;24.53;55.17;101533.19;5086190;28;20040;-69
2022/06/26 09:33:24;;;;;;;5.60;2.47;;;;;;;24.26;56.26;101518.03;5092898;28;20548;-71
2022/06/26 09:35:51;;;;;;;5.10;2.40;;;;;;;24.11;56.88;101520.56;5083617;28;20089;-70
2022/06/26 09:38:25;;;;;;;6.65;3.00;;;;;;;24.49;54.12;101518.19;5073129;28;20763;-70
2022/06/26 09:40:56;;;;;;;6.18;2.78;;;;;;;24.48;55.03;101519.22;5079321;28;20531;-69
2022/06/26 09:43:32;;;;;;;4.63;2.60;;;;;;;24.64;55.74;101519.19;5080902;28;20828;-69
2022/06/26 09:45:59;;;;;;;5.88;3.15;;;;;;;24.14;56.07;101514.75;5075193;28;20580;-70
2022/06/26 09:48:25;;;;;;;7.60;2.85;;;;;;;24.99;56.61;101519.81;5083659;27;20051;-69
2022/06/26 09:50:52;;;;;;;6.63;2.33;;;;;;;25.05;54.18;101519.97;5091515;28;20801;-69
2022/06/26 09:53:18;;;;;;;6.15;2.50;;;;;;;24.83;52.22;101517.97;5078151;28;20928;-70
2022/06/26 09:55:47;;;;;;;5.38;2.28;;;;;;;24.80;54.95;101519.19;5081076;28;20074;-70
2022/06/26 09:58:13;;;;;;;5.32;2.55;;;;;;;24.72;52.01;101523.81;5069194;28;20040;-71
2022/06/26 10:00:38;;;;;;;7.53;3.13;;;;;;;24.19;54.08;101523.28;5067630;28;20752;-70
2022/06/26 10:08:40;;;;;;;4.30;2.42;;;;;;;24.21;54.58;101536.75;5062506;28;20159;-70
2022/06/26 10:11:06;;;;;;;7.35;3.20;;;;;;;24.10;55.08;101539.78;5086572;28;20035;-69
2022/06/26 10:13:34;;;;;;;7.40;2.55;;;;;;;23.65;53.49;101541.94;5085935;28;20488;-69
2022/06/26 10:16:21;;;;;;;5.43;3.03;;;;;;;23.21;56.37;101538.50;5086539;28;20048;-69
2022/06/26 10:19:01;;;;;;;6.75;2.70;;;;;;;23.53;58.54;101546.78;5079304;28;20035;-70
2022/06/26 10:21:34;;;;;;;5.28;2.80;;;;;;;24.04;56.84;101555.78;5072144;28;21004;-70
2022/06/26 10:24:04;;;;;;;9.80;2.97;;;;;;;23.94;54.95;101549.66;5062111;28;20780;-70
2022/06/26 10:26:30;;;;;;;5.18;3.75;;;;;;;23.95;55.27;101553.25;5085311;28;20320;-70
2022/06/26 10:29:03;;;;;;;8.77;3.80;;;;;;;23.92;56.27;101550.84;5080289;28;20454;-70
2022/06/26 10:31:31;;;;;;;8.00;2.67;;;;;;;24.08;56.59;101553.59;5078767;28;20056;-70
2022/06/26 10:34:08;;;;;;;7.80;3.58;;;;;;;23.60;57.08;101555.16;5090243;28;20053;-70
2022/06/26 10:36:35;;;;;;;6.72;3.00;;;;;;;24.04;58.47;101557.66;5093318;28;20052;-70
2022/06/26 10:39:06;;;;;;;7.80;3.70;;;;;;;23.49;59.19;101567.22;5092046;28;20035;-69
2022/06/26 10:44:49;;;;;;;8.90;3.90;;;;;;;23.38;61.09;101566.63;5091546;27;20105;-70
2022/06/26 10:47:16;;;;;;;11.32;4.90;;;;;;;23.58;60.25;101567.22;5068737;27;20034;-69
2022/06/26 10:49:50;;;;;;;7.82;3.80;;;;;;;23.85;60.84;101566.16;5085241;28;20174;-69
2022/06/26 10:52:27;;;;;;;11.05;4.07;;;;;;;23.57;60.69;101570.97;5083639;27;20048;-69
2022/06/26 10:54:54;;;;;;;7.03;3.63;;;;;;;23.23;60.94;101574.56;5090475;28;20071;-70
2022/06/26 10:57:34;;;;;;;5.72;4.13;;;;;;;22.87;60.64;101580.09;5091110;27;20039;-69
2022/06/26 11:00:01;;;;;;;8.75;3.95;;;;;;;23.26;62.42;101568.78;5086267;27;20047;-69
2022/06/26 11:02:34;;;;;;;9.25;4.22;;;;;;;23.51;60.91;101576.06;5072688;28;20066;-69
2022/06/26 11:05:00;;;;;;;9.68;4.18;;;;;;;23.42;59.83;101581.63;5082595;28;20044;-69
2022/06/26 11:07:25;;;;;;;5.40;3.00;;;;;;;23.22;60.10;101581.00;5085483;28;20078;-70
2022/06/26 11:09:55;;;;;;;5.53;3.22;;;;;;;23.62;59.81;101571.31;5070911;28;20081;-70
2022/06/26 11:12:21;;;;;;;8.98;3.78;;;;;;;24.00;59.68;101575.41;5071705;28;20047;-70
2022/06/26 11:14:46;;;;;;;8.88;4.25;;;;;;;23.69;58.92;101569.66;5085095;28;20028;-70
2022/06/26 11:17:12;;;;;;;10.38;4.32;;;;;;;23.90;59.56;101577.41;5085030;27;20113;-70
2022/06/26 11:22:26;;;;;;;14.23;3.92;;;;;;;24.01;60.15;101577.09;5077783;28;20047;-70
2022/06/26 11:24:54;;;;;;;6.03;3.67;;;;;;;24.08;59.99;101586.28;5086865;28;20209;-69
2022/06/26 11:27:25;;;;;;;4.22;2.70;;;;;;;24.23;59.58;101572.88;5089779;28;20046;-69
2022/06/26 11:29:54;;;;;;;6.60;3.13;;;;;;;23.74;58.95;101581.78;5077053;28;20031;-69
2022/06/26 11:32:24;;;;;;;6.95;3.25;;;;;;;23.59;60.67;101577.09;5082141;28;20889;-69